createdAt,value
2019-01-18T09:54:56.848Z,48.7
2019-01-18T10:05:12.474Z,65.1
2019-01-18T10:15:27.769Z,73.1
2019-01-18T10:25:43.120Z,82.9
2019-01-18T10:35:57.901Z,91.8
2019-01-18T10:46:13.349Z,94.9
2019-01-18T10:56:28.087Z,100
2019-01-18T11:06:42.306Z,100
2019-01-18T11:16:56.999Z,100
2019-01-18T11:27:11.754Z,100
2019-01-18T11:37:25.860Z,100
2019-01-18T11:47:41.120Z,100
2019-01-18T11:57:56.158Z,100
2019-01-18T12:08:10.883Z,100
2019-01-18T12:18:25.658Z,100
2019-01-18T12:28:41.015Z,100
2019-01-18T12:38:56.573Z,100
2019-01-18T12:49:10.465Z,100
2019-01-18T12:59:24.304Z,100
2019-01-18T13:09:38.326Z,100
2019-01-18T13:19:53.763Z,100
2019-01-18T13:30:08.994Z,100
2019-01-18T13:40:24.057Z,100
2019-01-18T13:50:38.169Z,100
2019-01-18T14:00:52.870Z,100
2019-01-18T14:11:08.438Z,100
2019-01-18T14:21:23.943Z,100
2019-01-18T14:31:38.582Z,100
2019-01-18T14:41:53.682Z,100
2019-01-18T14:52:09.074Z,100
2019-01-18T15:02:24.137Z,100
2019-01-18T15:12:39.272Z,100
2019-01-18T15:22:53.195Z,100
2019-01-18T15:33:08.436Z,100
2019-01-18T15:43:23.137Z,100
2019-01-18T15:53:37.764Z,100
2019-01-18T16:03:51.511Z,100
2019-01-18T16:14:05.840Z,100
2019-01-18T16:24:19.465Z,100
2019-01-18T16:34:33.211Z,100
2019-01-18T16:44:47.152Z,100
2019-01-18T16:55:02.507Z,100
2019-01-18T17:05:17.338Z,100
2019-01-18T17:15:31.115Z,100
2019-01-18T17:25:45.806Z,97
2019-01-18T17:36:00.205Z,100
2019-01-18T17:46:14.482Z,100
2019-01-18T17:56:29.059Z,100
2019-01-18T18:06:44.604Z,100
2019-01-18T18:16:59.471Z,100
2019-01-18T18:27:14.466Z,100
2019-01-18T18:37:29.470Z,100
2019-01-18T18:47:43.912Z,95.6
2019-01-18T18:57:57.534Z,94.4
2019-01-18T19:08:11.607Z,93.8
2019-01-18T19:18:27.154Z,91
2019-01-18T19:28:42.160Z,87.6
2019-01-18T19:38:56.034Z,83.4
2019-01-18T19:49:10.769Z,79.8
2019-01-18T19:59:24.451Z,82.8
2019-01-18T20:09:38.758Z,81.7
2019-01-18T20:19:52.486Z,78.9
2019-01-18T20:30:06.985Z,77.7
2019-01-18T20:40:20.936Z,82
2019-01-18T20:50:35.817Z,82.1
2019-01-18T21:00:51.115Z,78.8
2019-01-18T21:11:06.636Z,76
2019-01-18T21:21:21.210Z,71.9
2019-01-18T21:31:36.261Z,67.8
2019-01-18T21:41:51.857Z,66.2
2019-01-18T21:52:07.131Z,64.8
2019-01-18T22:02:22.223Z,64.6
2019-01-18T22:12:36.211Z,64
2019-01-18T22:22:50.440Z,62.4
2019-01-18T22:33:04.887Z,62
2019-01-18T22:43:20.092Z,61.4
2019-01-18T22:53:34.859Z,59.4
2019-01-18T23:03:49.908Z,58.1
2019-01-18T23:14:03.878Z,58.3
2019-01-18T23:24:17.544Z,59.5
2019-01-18T23:34:31.585Z,60.3
2019-01-18T23:44:45.296Z,60.5
2019-01-18T23:55:00.244Z,63.3
